Time;durP1;ratioP1;P1;durP2;ratioP2;P2;SDS_P1;SDS_P2;PMS_P1;PMS_P2;Temp;Humidity;BMP_temperature;BMP_pressure;BME280_temperature;BME280_humidity;BME280_pressure;Samples;Min_cycle;Max_cycle;Signal;HPM_P1;HPM_P2
2021/01/11 00:02:02;;;;;;;20.15;8.38;;;;;;;;;;5040339;28;20184;-60
2021/01/11 00:04:29;;;;;;;21.00;7.72;;;;;;;;;;5039525;28;20081;-61
2021/01/11 00:06:55;;;;;;;16.83;6.53;;;;;;;;;;5040930;28;20037;-61
2021/01/11 00:09:21;;;;;;;20.17;7.75;;;;;;;;;;5037135;28;20044;-60
2021/01/11 00:11:47;;;;;;;20.70;7.10;;;;;;;;;;5041671;28;20045;-61
2021/01/11 00:14:13;;;;;;;21.60;7.22;;;;;;;;;;5040336;28;20041;-61
2021/01/11 00:16:39;;;;;;;19.35;7.25;;;;;;;;;;5036272;28;20041;-61
2021/01/11 00:19:05;;;;;;;16.65;6.50;;;;;;;;;;5038950;28;20048;-61
2021/01/11 00:21:32;;;;;;;20.17;8.07;;;;;;;;;;5038220;28;20055;-60
2021/01/11 00:23:58;;;;;;;18.10;7.10;;;;;;;;;;5043126;28;20041;-60
2021/01/11 00:26:24;;;;;;;24.00;7.20;;;;;;;;;;5036413;28;20041;-60
2021/01/11 00:28:50;;;;;;;17.58;7.20;;;;;;;;;;5040703;28;20049;-60
2021/01/11 00:31:21;;;;;;;18.20;8.13;;;;;;;;;;5045528;28;20064;-60
2021/01/11 00:33:47;;;;;;;21.33;7.75;;;;;;;;;;5041217;28;20049;-60
2021/01/11 00:36:13;;;;;;;19.42;7.22;;;;;;;;;;5038446;28;20103;-60
2021/01/11 00:38:40;;;;;;;15.70;6.47;;;;;;;;;;5040731;28;20072;-61
2021/01/11 00:41:08;;;;;;;18.92;7.30;;;;;;;;;;5036866;28;20033;-60
2021/01/11 00:43:34;;;;;;;21.55;8.60;;;;;;;;;;5040170;28;20092;-61
2021/01/11 00:46:00;;;;;;;21.13;7.60;;;;;;;;;;5038153;28;20053;-61
2021/01/11 00:48:26;;;;;;;20.63;7.97;;;;;;;;;;5042485;28;20049;-61
2021/01/11 00:50:51;;;;;;;21.50;8.18;;;;;;;;;;5038770;28;20135;-61
2021/01/11 00:53:17;;;;;;;20.98;7.93;;;;;;;;;;5040950;28;20041;-60
2021/01/11 00:55:44;;;;;;;20.98;8.18;;;;;;;;;;5056375;28;20069;-61
2021/01/11 00:58:10;;;;;;;19.30;7.40;;;;;;;;;;5038075;28;20052;-60
2021/01/11 01:00:36;;;;;;;16.10;6.65;;;;;;;;;;5039531;28;20061;-61
2021/01/11 01:03:02;;;;;;;21.90;8.18;;;;;;;;;;5036924;28;20060;-61
2021/01/11 01:05:28;;;;;;;19.30;7.25;;;;;;;;;;5040959;28;20033;-60
2021/01/11 01:07:54;;;;;;;19.58;7.60;;;;;;;;;;5037551;28;20095;-60
2021/01/11 01:10:20;;;;;;;21.98;7.43;;;;;;;;;;5040748;28;20026;-61
2021/01/11 01:12:48;;;;;;;20.63;7.72;;;;;;;;;;5036226;28;20052;-61
2021/01/11 01:15:14;;;;;;;24.88;8.70;;;;;;;;;;5040781;28;20041;-60
2021/01/11 01:17:40;;;;;;;19.55;7.53;;;;;;;;;;5038249;28;20048;-61
2021/01/11 01:20:07;;;;;;;18.48;7.63;;;;;;;;;;5043322;28;20037;-61
2021/01/11 01:22:39;;;;;;;21.83;8.57;;;;;;;;;;5039867;28;20033;-61
2021/01/11 01:25:05;;;;;;;21.13;8.45;;;;;;;;;;5039199;28;20033;-60
2021/01/11 01:27:31;;;;;;;26.02;8.85;;;;;;;;;;5036270;28;20037;-61
2021/01/11 01:30:01;;;;;;;20.88;7.97;;;;;;;;;;5040817;28;20041;-61
2021/01/11 01:32:27;;;;;;;21.50;8.15;;;;;;;;;;5040640;28;20033;-60
2021/01/11 01:34:53;;;;;;;24.38;8.20;;;;;;;;;;5043144;28;20045;-60
2021/01/11 01:37:19;;;;;;;24.38;9.05;;;;;;;;;;5042080;28;20049;-61
2021/01/11 01:39:45;;;;;;;24.80;8.73;;;;;;;;;;5054108;28;20052;-60
2021/01/11 01:42:11;;;;;;;24.83;8.45;;;;;;;;;;5042933;28;20106;-61
2021/01/11 01:44:37;;;;;;;25.70;8.90;;;;;;;;;;5039838;28;20045;-60
2021/01/11 01:47:05;;;;;;;23.40;9.05;;;;;;;;;;5043165;28;20078;-60
2021/01/11 01:49:31;;;;;;;26.63;9.35;;;;;;;;;;5049796;28;20064;-61
2021/01/11 01:51:59;;;;;;;25.95;9.85;;;;;;;;;;5064158;28;20060;-61
2021/01/11 01:54:25;;;;;;;31.65;11.07;;;;;;;;;;5048451;28;20037;-61
2021/01/11 01:56:51;;;;;;;24.55;8.90;;;;;;;;;;5044216;28;20061;-61
2021/01/11 01:59:17;;;;;;;28.75;10.35;;;;;;;;;;5039274;28;20111;-61
2021/01/11 02:01:44;;;;;;;30.67;10.45;;;;;;;;;;5042715;28;20045;-60
2021/01/11 02:04:11;;;;;;;34.70;10.65;;;;;;;;;;5038880;28;20025;-61
2021/01/11 02:06:39;;;;;;;26.88;10.30;;;;;;;;;;5043090;28;20052;-60
2021/01/11 02:09:06;;;;;;;38.70;14.05;;;;;;;;;;5037810;28;20049;-60
2021/01/11 02:11:37;;;;;;;34.88;13.52;;;;;;;;;;5042670;28;20100;-60
2021/01/11 02:14:12;;;;;;;37.88;12.90;;;;;;;;;;5039364;28;20045;-61
2021/01/11 02:16:41;;;;;;;31.90;11.40;;;;;;;;;;5043719;28;20062;-61
2021/01/11 02:19:22;;;;;;;34.95;12.52;;;;;;;;;;5040527;28;20037;-61
2021/01/11 02:22:07;;;;;;;34.83;11.48;;;;;;;;;;5024007;28;20057;-60
2021/01/11 02:24:49;;;;;;;40.15;12.93;;;;;;;;;;5028559;28;20030;-60
2021/01/11 02:27:21;;;;;;;34.80;12.45;;;;;;;;;;5042242;28;20037;-61
2021/01/11 02:29:59;;;;;;;35.78;13.98;;;;;;;;;;5040272;28;20045;-61
2021/01/11 02:32:25;;;;;;;42.42;14.82;;;;;;;;;;5042918;28;20127;-60
2021/01/11 02:34:52;;;;;;;35.47;13.40;;;;;;;;;;5039641;28;20037;-60
2021/01/11 02:37:19;;;;;;;39.42;14.30;;;;;;;;;;5043448;28;20052;-61
2021/01/11 02:39:45;;;;;;;30.30;11.55;;;;;;;;;;5041897;28;20053;-60
2021/01/11 02:42:11;;;;;;;43.53;14.57;;;;;;;;;;5039970;28;20053;-60
2021/01/11 02:44:37;;;;;;;30.48;11.63;;;;;;;;;;5059514;28;20041;-60
2021/01/11 02:47:04;;;;;;;38.22;13.60;;;;;;;;;;5042572;28;20078;-60
2021/01/11 02:49:39;;;;;;;35.47;11.63;;;;;;;;;;5043534;28;20052;-60
2021/01/11 02:52:11;;;;;;;36.63;13.65;;;;;;;;;;5038938;28;20056;-60
2021/01/11 02:54:39;;;;;;;35.08;11.95;;;;;;;;;;5043117;28;20048;-60
2021/01/11 02:57:10;;;;;;;35.20;12.93;;;;;;;;;;5037921;28;20146;-60
2021/01/11 02:59:37;;;;;;;38.85;14.07;;;;;;;;;;5041847;28;20057;-60
2021/01/11 03:02:06;;;;;;;31.40;12.55;;;;;;;;;;5035754;28;20045;-60
2021/01/11 03:04:31;;;;;;;;;;;;;;;;;;5041763;28;20057;-61
2021/01/11 03:06:58;;;;;;;36.42;10.95;;;;;;;;;;5053200;28;19924;-60
2021/01/11 03:09:24;;;;;;;40.97;14.30;;;;;;;;;;5040506;28;20064;-60
2021/01/11 03:11:51;;;;;;;39.88;14.70;;;;;;;;;;5039270;28;20085;-60
2021/01/11 03:14:17;;;;;;;33.53;12.18;;;;;;;;;;5040950;28;20045;-60
2021/01/11 03:16:43;;;;;;;41.30;14.23;;;;;;;;;;5036946;28;20127;-60
2021/01/11 03:19:09;;;;;;;31.15;11.52;;;;;;;;;;5041615;28;20056;-60
2021/01/11 03:21:36;;;;;;;39.25;13.65;;;;;;;;;;5038923;28;20037;-60
2021/01/11 03:24:02;;;;;;;40.83;13.45;;;;;;;;;;5041665;28;20238;-60
2021/01/11 03:26:28;;;;;;;37.20;13.35;;;;;;;;;;5041938;28;20098;-60
2021/01/11 03:28:56;;;;;;;35.63;12.43;;;;;;;;;;5038663;28;20049;-60
2021/01/11 03:31:23;;;;;;;34.63;12.35;;;;;;;;;;5041763;28;20059;-61
2021/01/11 03:33:49;;;;;;;38.75;12.40;;;;;;;;;;5037613;28;20053;-61
2021/01/11 03:36:16;;;;;;;38.70;12.93;;;;;;;;;;5042923;28;20052;-60
2021/01/11 03:38:42;;;;;;;31.85;10.88;;;;;;;;;;5038486;28;20148;-60
2021/01/11 03:41:09;;;;;;;41.80;13.85;;;;;;;;;;5041019;28;20073;-60
2021/01/11 03:43:37;;;;;;;37.70;11.13;;;;;;;;;;5029541;28;20033;-61
2021/01/11 03:46:03;;;;;;;41.40;12.23;;;;;;;;;;5041003;28;20058;-61
2021/01/11 03:48:29;;;;;;;35.17;11.40;;;;;;;;;;5037775;28;20045;-61
2021/01/11 03:50:55;;;;;;;42.78;13.38;;;;;;;;;;5043566;28;20102;-60
2021/01/11 03:53:22;;;;;;;40.80;12.80;;;;;;;;;;5036908;28;20102;-60
2021/01/11 03:55:48;;;;;;;39.28;12.45;;;;;;;;;;5042207;28;20049;-60
2021/01/11 03:58:14;;;;;;;43.75;12.45;;;;;;;;;;5037969;28;20152;-61
2021/01/11 04:00:42;;;;;;;36.45;11.00;;;;;;;;;;5042212;28;20134;-60
2021/01/11 04:03:08;;;;;;;40.58;13.35;;;;;;;;;;5041223;28;20041;-60
2021/01/11 04:05:35;;;;;;;33.20;11.27;;;;;;;;;;5036762;28;20100;-60
2021/01/11 04:08:01;;;;;;;41.88;13.95;;;;;;;;;;5041867;28;20044;-60
2021/01/11 04:10:28;;;;;;;42.80;11.30;;;;;;;;;;5040584;28;20029;-60
2021/01/11 04:12:54;;;;;;;42.30;12.82;;;;;;;;;;5043611;28;20041;-60
2021/01/11 04:15:21;;;;;;;35.65;11.02;;;;;;;;;;5037884;28;20048;-60
2021/01/11 04:17:49;;;;;;;39.72;12.13;;;;;;;;;;5040323;28;20068;-60
2021/01/11 04:20:15;;;;;;;52.28;12.77;;;;;;;;;;5039434;28;20029;-60
2021/01/11 04:22:42;;;;;;;39.25;11.10;;;;;;;;;;5043083;28;20064;-60
2021/01/11 04:25:09;;;;;;;40.55;12.43;;;;;;;;;;5038544;28;20060;-60
2021/01/11 04:27:36;;;;;;;36.75;11.10;;;;;;;;;;5041575;28;20026;-60
2021/01/11 04:30:04;;;;;;;43.47;12.45;;;;;;;;;;5036335;28;20056;-60
2021/01/11 04:32:30;;;;;;;37.97;11.27;;;;;;;;;;5040778;28;20037;-60
2021/01/11 04:34:56;;;;;;;40.17;12.18;;;;;;;;;;5037688;28;20039;-60
2021/01/11 04:37:22;;;;;;;42.78;11.20;;;;;;;;;;5039680;28;20041;-60
2021/01/11 04:39:48;;;;;;;37.08;10.85;;;;;;;;;;5037574;28;20064;-60
2021/01/11 04:42:17;;;;;;;42.20;12.63;;;;;;;;;;5040216;28;20048;-60
2021/01/11 04:44:45;;;;;;;45.72;13.30;;;;;;;;;;5039545;28;20113;-60
2021/01/11 04:47:11;;;;;;;35.90;10.90;;;;;;;;;;5052295;28;20030;-60
2021/01/11 04:49:37;;;;;;;48.95;14.55;;;;;;;;;;5039266;28;20073;-60
2021/01/11 04:52:05;;;;;;;36.60;10.43;;;;;;;;;;5035275;28;20163;-60
2021/01/11 04:54:32;;;;;;;38.05;12.75;;;;;;;;;;5056426;28;20046;-61
2021/01/11 04:57:00;;;;;;;41.50;10.57;;;;;;;;;;5037473;28;20061;-60
2021/01/11 04:59:27;;;;;;;44.28;11.65;;;;;;;;;;5039622;28;20086;-60
2021/01/11 05:01:55;;;;;;;43.75;12.30;;;;;;;;;;5035059;28;20049;-60
2021/01/11 05:04:22;;;;;;;48.53;14.48;;;;;;;;;;5040917;28;20041;-60
2021/01/11 05:06:48;;;;;;;52.72;14.25;;;;;;;;;;5056617;28;20033;-61
2021/01/11 05:09:16;;;;;;;45.65;12.40;;;;;;;;;;5044978;28;20040;-60
2021/01/11 05:11:44;;;;;;;47.88;12.93;;;;;;;;;;5041116;28;20049;-60
2021/01/11 05:14:16;;;;;;;43.63;12.85;;;;;;;;;;5043292;28;20045;-60
2021/01/11 05:16:42;;;;;;;40.53;11.07;;;;;;;;;;5040635;28;20033;-60
2021/01/11 05:19:25;;;;;;;37.90;11.73;;;;;;;;;;5043580;28;20114;-61
2021/01/11 05:21:52;;;;;;;41.58;10.98;;;;;;;;;;5041031;28;20057;-60
2021/01/11 05:24:28;;;;;;;43.28;13.60;;;;;;;;;;5042754;28;20037;-59
2021/01/11 05:26:56;;;;;;;41.10;11.38;;;;;;;;;;5042126;28;20075;-60
2021/01/11 05:29:22;;;;;;;44.05;10.75;;;;;;;;;;5043228;28;20041;-60
2021/01/11 05:31:52;;;;;;;44.17;13.38;;;;;;;;;;5042084;28;20040;-61
2021/01/11 05:34:18;;;;;;;39.85;12.05;;;;;;;;;;5046077;28;20048;-60
2021/01/11 05:36:46;;;;;;;46.88;12.85;;;;;;;;;;5043772;28;20077;-61
2021/01/11 05:39:12;;;;;;;53.38;15.25;;;;;;;;;;5041248;28;20057;-60
2021/01/11 05:41:40;;;;;;;50.60;13.25;;;;;;;;;;5040570;28;20041;-60
2021/01/11 05:44:12;;;;;;;45.85;11.98;;;;;;;;;;5037032;28;20043;-60
2021/01/11 05:46:39;;;;;;;43.28;12.60;;;;;;;;;;5043124;28;20025;-60
2021/01/11 05:49:05;;;;;;;42.85;12.50;;;;;;;;;;5040315;28;20038;-60
2021/01/11 05:51:33;;;;;;;47.38;13.50;;;;;;;;;;5045098;28;20056;-60
2021/01/11 05:54:00;;;;;;;44.97;14.60;;;;;;;;;;5037772;28;20041;-60
2021/01/11 05:56:26;;;;;;;37.90;12.18;;;;;;;;;;5043511;28;20122;-60
2021/01/11 05:59:05;;;;;;;38.67;12.52;;;;;;;;;;5038842;28;20037;-60
2021/01/11 06:01:32;;;;;;;50.78;14.68;;;;;;;;;;5043869;28;20048;-60
2021/01/11 06:03:58;;;;;;;50.90;15.30;;;;;;;;;;5039063;28;20060;-60
2021/01/11 06:06:24;;;;;;;49.17;13.77;;;;;;;;;;5043221;28;20060;-60
2021/01/11 06:08:50;;;;;;;50.60;14.70;;;;;;;;;;5039902;28;20041;-60
2021/01/11 06:11:20;;;;;;;44.58;13.30;;;;;;;;;;5042034;28;20033;-60
2021/01/11 06:13:48;;;;;;;45.38;15.45;;;;;;;;;;5038020;28;20049;-60
2021/01/11 06:16:15;;;;;;;40.75;13.93;;;;;;;;;;5042845;28;20079;-60
2021/01/11 06:18:41;;;;;;;41.60;13.60;;;;;;;;;;5039449;28;20033;-60
2021/01/11 06:21:10;;;;;;;45.83;15.35;;;;;;;;;;5043285;28;20033;-60
2021/01/11 06:23:38;;;;;;;54.25;16.60;;;;;;;;;;5040909;28;20046;-60
2021/01/11 06:26:25;;;;;;;47.15;15.30;;;;;;;;;;5042176;28;20045;-60
2021/01/11 06:28:52;;;;;;;49.90;16.25;;;;;;;;;;5038061;28;20065;-60
2021/01/11 06:31:19;;;;;;;44.08;13.02;;;;;;;;;;5040820;28;20045;-61
2021/01/11 06:33:45;;;;;;;36.40;13.60;;;;;;;;;;5042350;28;20042;-60
2021/01/11 06:36:18;;;;;;;43.65;14.82;;;;;;;;;;5040113;28;20041;-60
2021/01/11 06:38:45;;;;;;;57.78;15.73;;;;;;;;;;5041958;28;20037;-60
2021/01/11 06:41:14;;;;;;;35.72;13.07;;;;;;;;;;5039241;28;20044;-60
2021/01/11 06:43:39;;;;;;;;;;;;;;;;;;5043701;28;20052;-61
2021/01/11 06:46:06;;;;;;;38.13;13.02;;;;;;;;;;5037978;28;19916;-61
2021/01/11 06:48:33;;;;;;;38.83;13.98;;;;;;;;;;5042343;28;20056;-60
2021/01/11 06:51:05;;;;;;;48.40;15.70;;;;;;;;;;5038128;28;20053;-61
2021/01/11 06:53:31;;;;;;;41.45;13.73;;;;;;;;;;5042748;28;20040;-60
2021/01/11 06:56:04;;;;;;;42.55;15.18;;;;;;;;;;5040037;28;20044;-60
2021/01/11 06:58:32;;;;;;;30.42;12.77;;;;;;;;;;5042645;28;20044;-60
2021/01/11 07:01:01;;;;;;;42.40;14.55;;;;;;;;;;5041422;28;20077;-60
2021/01/11 07:03:42;;;;;;;40.63;13.77;;;;;;;;;;5043375;28;20041;-60
2021/01/11 07:06:25;;;;;;;44.38;14.85;;;;;;;;;;5038596;28;20044;-60
2021/01/11 07:08:51;;;;;;;35.00;13.23;;;;;;;;;;5041779;28;20072;-60
2021/01/11 07:11:31;;;;;;;38.90;14.45;;;;;;;;;;5039045;28;20068;-60
2021/01/11 07:13:57;;;;;;;36.35;13.27;;;;;;;;;;5041164;28;20114;-60
2021/01/11 07:16:36;;;;;;;31.92;13.07;;;;;;;;;;5038530;28;20096;-59
2021/01/11 07:19:03;;;;;;;31.23;11.23;;;;;;;;;;5043067;28;20033;-60
2021/01/11 07:21:29;;;;;;;33.80;13.52;;;;;;;;;;5039039;28;20033;-60
2021/01/11 07:23:56;;;;;;;39.28;12.95;;;;;;;;;;5041149;28;20030;-60
2021/01/11 07:26:23;;;;;;;37.80;15.27;;;;;;;;;;5039704;28;20056;-60
2021/01/11 07:28:53;;;;;;;32.70;12.25;;;;;;;;;;5039463;28;20045;-59
2021/01/11 07:31:25;;;;;;;31.42;12.88;;;;;;;;;;5051600;28;20065;-59
2021/01/11 07:33:52;;;;;;;31.52;12.00;;;;;;;;;;5040267;28;20041;-60
2021/01/11 07:36:20;;;;;;;31.88;13.10;;;;;;;;;;5040016;28;20041;-60
2021/01/11 07:38:47;;;;;;;28.48;11.85;;;;;;;;;;5036821;28;20106;-60
2021/01/11 07:41:26;;;;;;;27.80;12.38;;;;;;;;;;5040537;28;20053;-60
2021/01/11 07:43:52;;;;;;;32.65;13.63;;;;;;;;;;5036132;28;20080;-60
2021/01/11 07:46:21;;;;;;;28.13;10.52;;;;;;;;;;5040907;28;20049;-61
2021/01/11 07:48:48;;;;;;;27.90;12.40;;;;;;;;;;5036418;28;20199;-60
2021/01/11 07:51:14;;;;;;;26.08;11.85;;;;;;;;;;5041805;28;20034;-60
2021/01/11 07:53:41;;;;;;;31.63;13.68;;;;;;;;;;5037951;28;20029;-60
2021/01/11 07:56:07;;;;;;;28.63;12.10;;;;;;;;;;5041193;28;20038;-61
2021/01/11 07:58:33;;;;;;;29.02;11.80;;;;;;;;;;5036254;28;20130;-60
2021/01/11 08:01:03;;;;;;;33.30;13.05;;;;;;;;;;5041003;28;20119;-61
2021/01/11 08:03:29;;;;;;;25.23;10.75;;;;;;;;;;5038066;28;20053;-60
2021/01/11 08:06:00;;;;;;;26.35;10.43;;;;;;;;;;5043083;28;20073;-60
2021/01/11 08:08:27;;;;;;;30.45;12.07;;;;;;;;;;5037209;28;20049;-60
2021/01/11 08:10:55;;;;;;;28.35;11.32;;;;;;;;;;5056009;28;20052;-60
2021/01/11 08:13:23;;;;;;;25.83;11.27;;;;;;;;;;5038820;28;20118;-60
2021/01/11 08:15:53;;;;;;;31.13;9.95;;;;;;;;;;5031679;28;20044;-60
2021/01/11 08:18:19;;;;;;;28.00;10.77;;;;;;;;;;5037010;28;20043;-61
2021/01/11 08:20:45;;;;;;;27.27;11.27;;;;;;;;;;5042353;28;20144;-61
2021/01/11 08:23:11;;;;;;;31.65;12.05;;;;;;;;;;5043330;28;20041;-62
2021/01/11 08:25:38;;;;;;;27.77;10.73;;;;;;;;;;5040572;28;20078;-61
2021/01/11 08:28:05;;;;;;;27.00;9.93;;;;;;;;;;5041366;28;20049;-61
2021/01/11 08:30:31;;;;;;;24.83;10.25;;;;;;;;;;5037889;28;20144;-61
2021/01/11 08:32:59;;;;;;;28.25;11.57;;;;;;;;;;5040910;28;20033;-61
2021/01/11 08:35:25;;;;;;;31.00;13.00;;;;;;;;;;5036848;28;20055;-61
2021/01/11 08:37:58;;;;;;;24.88;10.10;;;;;;;;;;5041064;28;20053;-61
2021/01/11 08:40:27;;;;;;;30.67;12.55;;;;;;;;;;5038402;28;20065;-62
2021/01/11 08:42:53;;;;;;;23.58;9.38;;;;;;;;;;5044131;28;20052;-61
2021/01/11 08:45:27;;;;;;;28.00;10.00;;;;;;;;;;5041660;28;20034;-61
2021/01/11 08:48:00;;;;;;;30.02;12.65;;;;;;;;;;5042693;28;20029;-62
2021/01/11 08:50:26;;;;;;;25.00;10.50;;;;;;;;;;5040047;28;20057;-61
2021/01/11 08:52:52;;;;;;;29.35;11.55;;;;;;;;;;5043256;28;20041;-62
2021/01/11 08:55:19;;;;;;;27.42;10.32;;;;;;;;;;5038773;28;20041;-62
2021/01/11 08:57:54;;;;;;;26.55;10.30;;;;;;;;;;5042192;28;20041;-62
2021/01/11 09:00:21;;;;;;;23.83;11.05;;;;;;;;;;5039770;28;20045;-61
2021/01/11 09:02:48;;;;;;;23.27;10.52;;;;;;;;;;5042462;28;20153;-61
2021/01/11 09:05:16;;;;;;;25.38;10.43;;;;;;;;;;5055796;28;20068;-62
2021/01/11 09:07:42;;;;;;;24.27;10.00;;;;;;;;;;5043606;28;20049;-61
2021/01/11 09:10:30;;;;;;;31.45;11.07;;;;;;;;;;5041498;28;20127;-61
2021/01/11 09:12:57;;;;;;;26.35;9.95;;;;;;;;;;5022687;28;20042;-61
2021/01/11 09:15:27;;;;;;;25.35;10.20;;;;;;;;;;5035993;28;20049;-61
2021/01/11 09:18:24;;;;;;;22.70;8.82;;;;;;;;;;5005018;28;20021;-62
2021/01/11 09:20:52;;;;;;;21.33;8.18;;;;;;;;;;5027612;28;20041;-61
2021/01/11 09:23:18;;;;;;;22.05;7.68;;;;;;;;;;5042152;28;20064;-61
2021/01/11 09:25:49;;;;;;;23.20;9.38;;;;;;;;;;5042322;28;20037;-62
2021/01/11 09:28:15;;;;;;;23.63;9.80;;;;;;;;;;5042823;28;20048;-62
2021/01/11 09:30:46;;;;;;;21.60;9.55;;;;;;;;;;5037319;28;20041;-61
2021/01/11 09:33:12;;;;;;;19.65;8.38;;;;;;;;;;5040659;28;20037;-62
2021/01/11 09:35:39;;;;;;;22.98;10.52;;;;;;;;;;5042169;28;20055;-62
2021/01/11 09:38:05;;;;;;;24.27;9.13;;;;;;;;;;5040058;28;20046;-61
2021/01/11 09:40:31;;;;;;;24.80;9.50;;;;;;;;;;5043530;28;20037;-61
2021/01/11 09:42:58;;;;;;;24.42;9.93;;;;;;;;;;5040649;28;20065;-62
2021/01/11 09:45:25;;;;;;;21.10;9.63;;;;;;;;;;5043586;28;20148;-62
2021/01/11 09:47:51;;;;;;;25.42;9.07;;;;;;;;;;5042109;28;20049;-61
2021/01/11 09:50:18;;;;;;;21.85;10.32;;;;;;;;;;5046380;28;20041;-61
2021/01/11 09:52:48;;;;;;;22.80;8.88;;;;;;;;;;5040302;28;20037;-61
2021/01/11 09:55:16;;;;;;;24.13;10.15;;;;;;;;;;5043261;28;20041;-62
2021/01/11 09:57:45;;;;;;;107.00;31.08;;;;;;;;;;5039149;28;20048;-61
2021/01/11 10:00:12;;;;;;;76.72;26.42;;;;;;;;;;5042744;28;20037;-61
2021/01/11 10:02:39;;;;;;;49.42;16.88;;;;;;;;;;5039593;28;20306;-62
2021/01/11 10:05:05;;;;;;;53.25;20.75;;;;;;;;;;5041376;28;20065;-61
2021/01/11 10:07:32;;;;;;;53.90;18.90;;;;;;;;;;5039055;28;20033;-62
2021/01/11 10:09:58;;;;;;;26.38;11.93;;;;;;;;;;5041787;28;20095;-62
2021/01/11 10:12:29;;;;;;;21.73;11.27;;;;;;;;;;5028166;28;20053;-61
2021/01/11 10:15:04;;;;;;;21.90;9.50;;;;;;;;;;5015621;28;20068;-62
2021/01/11 10:17:30;;;;;;;31.15;9.73;;;;;;;;;;5021374;28;20033;-62
2021/01/11 10:19:56;;;;;;;41.95;11.65;;;;;;;;;;5040190;28;20073;-62
2021/01/11 10:22:26;;;;;;;56.60;12.77;;;;;;;;;;5041701;28;20037;-62
2021/01/11 10:24:55;;;;;;;36.22;11.80;;;;;;;;;;5032505;28;20045;-61
2021/01/11 10:27:44;;;;;;;83.03;52.58;;;;;;;;;;5012199;28;20037;-61
2021/01/11 10:30:13;;;;;;;76.38;44.97;;;;;;;;;;4993667;28;20041;-60
2021/01/11 10:32:46;;;;;;;;;;;;;;;;;;5045940;28;20045;-61
2021/01/11 10:35:18;;;;;;;110.10;61.75;;;;;;;;;;4952750;28;19934;-60
2021/01/11 10:37:46;;;;;;;51.35;31.27;;;;;;;;;;4986743;28;20053;-60
2021/01/11 10:40:22;;;;;;;33.83;21.20;;;;;;;;;;5015616;28;20041;-60
2021/01/11 10:42:51;;;;;;;35.17;19.52;;;;;;;;;;5031588;28;20289;-60
2021/01/11 10:45:20;;;;;;;;;;;;;;;;;;5026717;28;20059;-60
2021/01/11 10:47:50;;;;;;;28.25;15.13;;;;;;;;;;5029585;28;19913;-60
2021/01/11 10:53:23;;;;;;;27.17;11.68;;;;;;;;;;4969420;28;20052;-60
2021/01/11 10:55:52;;;;;;;15.90;8.75;;;;;;;;;;4994412;28;20049;-60
2021/01/11 10:58:17;;;;;;;19.88;10.20;;;;;;;;;;5004036;28;20046;-60
2021/01/11 11:00:43;;;;;;;21.15;8.77;;;;;;;;;;5029952;28;20040;-60
2021/01/11 11:03:10;;;;;;;20.13;9.23;;;;;;;;;;5041349;28;20038;-60
2021/01/11 11:05:36;;;;;;;23.67;8.50;;;;;;;;;;5036605;28;20183;-60
2021/01/11 11:08:02;;;;;;;20.70;8.50;;;;;;;;;;5026615;28;20123;-60
2021/01/11 11:10:28;;;;;;;19.10;8.38;;;;;;;;;;5038687;28;20052;-60
2021/01/11 11:12:59;;;;;;;21.70;9.45;;;;;;;;;;5043181;28;20037;-60
2021/01/11 11:15:26;;;;;;;16.60;7.15;;;;;;;;;;5040773;28;20134;-61
2021/01/11 11:17:52;;;;;;;18.45;8.20;;;;;;;;;;5042284;28;20048;-60
2021/01/11 11:20:18;;;;;;;17.05;7.95;;;;;;;;;;5039842;28;20037;-60
2021/01/11 11:22:45;;;;;;;19.58;8.35;;;;;;;;;;5041914;28;20041;-60
2021/01/11 11:25:12;;;;;;;21.42;8.35;;;;;;;;;;5042388;28;20053;-61
2021/01/11 11:27:38;;;;;;;20.67;9.30;;;;;;;;;;5038234;28;20043;-60
2021/01/11 11:30:08;;;;;;;18.02;7.38;;;;;;;;;;5041713;28;20073;-60
2021/01/11 11:32:35;;;;;;;19.17;8.00;;;;;;;;;;5038315;28;20049;-60
2021/01/11 11:35:04;;;;;;;15.82;7.07;;;;;;;;;;5035351;28;20056;-60
2021/01/11 11:37:30;;;;;;;14.57;6.40;;;;;;;;;;5038365;28;20044;-60
2021/01/11 11:39:56;;;;;;;15.93;6.68;;;;;;;;;;5041585;28;20045;-60
2021/01/11 11:42:23;;;;;;;17.45;7.40;;;;;;;;;;5038057;28;20069;-60
2021/01/11 11:44:48;;;;;;;13.88;6.13;;;;;;;;;;5041385;28;20037;-60
2021/01/11 11:47:15;;;;;;;17.35;6.85;;;;;;;;;;5036849;28;20077;-60
2021/01/11 11:49:41;;;;;;;16.15;6.25;;;;;;;;;;5041720;28;20048;-60
2021/01/11 11:52:09;;;;;;;15.57;6.82;;;;;;;;;;5038331;28;20041;-60
2021/01/11 11:54:35;;;;;;;15.68;7.18;;;;;;;;;;5043851;28;20045;-60
2021/01/11 11:57:02;;;;;;;17.17;6.18;;;;;;;;;;5038986;28;20055;-61
2021/01/11 11:59:28;;;;;;;14.55;6.60;;;;;;;;;;5040128;28;20041;-60
2021/01/11 12:01:54;;;;;;;17.45;7.18;;;;;;;;;;5038856;28;20052;-61
2021/01/11 12:04:21;;;;;;;12.02;5.43;;;;;;;;;;5040136;28;20060;-60
2021/01/11 12:06:47;;;;;;;19.30;8.10;;;;;;;;;;5042607;28;20057;-60
2021/01/11 12:09:13;;;;;;;16.15;6.25;;;;;;;;;;5038727;28;20047;-60
2021/01/11 12:11:40;;;;;;;11.38;5.60;;;;;;;;;;5040532;28;20078;-60
2021/01/11 12:14:06;;;;;;;13.93;6.10;;;;;;;;;;5039269;28;20048;-61
2021/01/11 12:16:32;;;;;;;12.93;5.97;;;;;;;;;;5040374;28;20041;-60
2021/01/11 12:18:58;;;;;;;15.55;6.93;;;;;;;;;;5035819;28;20060;-60
2021/01/11 12:21:29;;;;;;;13.18;5.85;;;;;;;;;;5041069;28;20101;-60
2021/01/11 12:23:55;;;;;;;14.93;6.43;;;;;;;;;;5051202;28;20037;-60
2021/01/11 12:26:21;;;;;;;17.23;7.10;;;;;;;;;;5039809;28;20077;-60
2021/01/11 12:28:47;;;;;;;13.82;6.50;;;;;;;;;;5036074;28;20033;-60
2021/01/11 12:31:15;;;;;;;14.70;7.25;;;;;;;;;;5040474;28;20053;-60
2021/01/11 12:33:41;;;;;;;16.98;6.15;;;;;;;;;;5036092;28;20030;-60
2021/01/11 12:36:07;;;;;;;12.35;5.75;;;;;;;;;;5040544;28;20114;-60
2021/01/11 12:38:34;;;;;;;14.77;7.05;;;;;;;;;;5036702;28;20080;-60
2021/01/11 12:41:01;;;;;;;20.45;6.25;;;;;;;;;;5041097;28;20167;-60
2021/01/11 12:43:28;;;;;;;14.88;6.45;;;;;;;;;;5038587;28;20041;-60
2021/01/11 12:45:54;;;;;;;19.00;6.55;;;;;;;;;;5039787;28;20119;-60
2021/01/11 12:48:20;;;;;;;14.43;6.57;;;;;;;;;;5040647;28;20056;-60
2021/01/11 12:50:48;;;;;;;18.48;7.15;;;;;;;;;;5043633;28;20033;-60
2021/01/11 12:53:14;;;;;;;12.52;5.75;;;;;;;;;;5040552;28;20037;-60
2021/01/11 12:55:43;;;;;;;17.17;7.15;;;;;;;;;;5036219;28;20043;-61
2021/01/11 12:58:09;;;;;;;15.85;6.65;;;;;;;;;;5041026;28;20056;-61
2021/01/11 13:00:36;;;;;;;16.83;6.65;;;;;;;;;;5036907;28;20127;-61
2021/01/11 13:03:02;;;;;;;17.65;6.10;;;;;;;;;;5040620;28;20029;-61
2021/01/11 13:05:28;;;;;;;18.48;7.10;;;;;;;;;;5037729;28;20052;-60
2021/01/11 13:07:54;;;;;;;14.55;6.43;;;;;;;;;;5038986;28;20037;-61
2021/01/11 13:10:20;;;;;;;13.40;6.68;;;;;;;;;;5036489;28;20072;-60
2021/01/11 13:12:49;;;;;;;17.42;6.20;;;;;;;;;;5040585;28;20049;-60
2021/01/11 13:15:15;;;;;;;23.02;7.38;;;;;;;;;;5036545;28;20034;-60
2021/01/11 13:17:43;;;;;;;19.85;8.75;;;;;;;;;;5040701;28;20078;-60
2021/01/11 13:20:09;;;;;;;25.27;10.43;;;;;;;;;;5035653;28;20048;-60
2021/01/11 13:22:35;;;;;;;383.75;291.73;;;;;;;;;;5040081;28;20064;-60
2021/01/11 13:25:02;;;;;;;356.05;270.20;;;;;;;;;;5039934;28;20049;-60
2021/01/11 13:27:28;;;;;;;407.60;291.08;;;;;;;;;;5040636;28;20126;-60
2021/01/11 13:29:55;;;;;;;246.55;154.77;;;;;;;;;;5060425;28;20061;-60
2021/01/11 13:32:21;;;;;;;182.13;123.00;;;;;;;;;;5040932;28;20045;-60
2021/01/11 13:34:47;;;;;;;144.30;99.85;;;;;;;;;;5043050;28;20045;-60
2021/01/11 13:37:13;;;;;;;108.75;65.70;;;;;;;;;;5039502;28;20037;-60
2021/01/11 13:39:39;;;;;;;36.97;22.10;;;;;;;;;;5041535;28;20048;-60
2021/01/11 13:42:10;;;;;;;19.67;10.40;;;;;;;;;;5033993;28;20033;-60
2021/01/11 13:44:36;;;;;;;21.75;8.57;;;;;;;;;;5023119;28;20054;-60
2021/01/11 13:47:03;;;;;;;20.05;8.52;;;;;;;;;;5029586;28;20060;-60
2021/01/11 13:49:29;;;;;;;16.50;7.68;;;;;;;;;;5043023;28;20033;-60
2021/01/11 13:51:56;;;;;;;17.73;7.35;;;;;;;;;;5038155;28;20055;-60
2021/01/11 13:54:22;;;;;;;14.82;7.55;;;;;;;;;;5043126;28;20037;-60
2021/01/11 13:56:48;;;;;;;14.73;7.15;;;;;;;;;;5039621;28;20041;-60
2021/01/11 13:59:14;;;;;;;17.75;7.75;;;;;;;;;;5042557;28;20052;-60
2021/01/11 14:01:40;;;;;;;15.93;7.93;;;;;;;;;;5041168;28;20143;-61
2021/01/11 14:04:07;;;;;;;17.98;8.18;;;;;;;;;;5043240;28;20238;-61
2021/01/11 14:06:33;;;;;;;14.52;6.72;;;;;;;;;;5044197;28;20037;-60
2021/01/11 14:08:59;;;;;;;14.02;6.85;;;;;;;;;;5040234;28;20081;-60
2021/01/11 14:11:27;;;;;;;18.52;6.45;;;;;;;;;;5042217;28;20098;-60
2021/01/11 14:13:53;;;;;;;13.95;6.60;;;;;;;;;;5039248;28;20074;-60
2021/01/11 14:16:20;;;;;;;14.02;6.28;;;;;;;;;;5041811;28;20041;-61
2021/01/11 14:18:46;;;;;;;16.40;6.93;;;;;;;;;;5038982;28;20103;-60
2021/01/11 14:21:14;;;;;;;17.17;7.60;;;;;;;;;;5042938;28;20077;-60
2021/01/11 14:23:41;;;;;;;18.00;7.53;;;;;;;;;;5039131;28;20049;-61
2021/01/11 14:26:07;;;;;;;13.43;6.15;;;;;;;;;;5044115;28;20065;-61
2021/01/11 14:28:33;;;;;;;14.77;6.90;;;;;;;;;;5039315;28;20057;-61
2021/01/11 14:30:59;;;;;;;18.48;6.28;;;;;;;;;;5042035;28;20033;-61